Time;durP1;ratioP1;P1;durP2;ratioP2;P2;SDS_P1;SDS_P2;PMS_P1;PMS_P2;Temp;Humidity;BMP_temperature;BMP_pressure;BME280_temperature;BME280_humidity;BME280_pressure;Samples;Min_cycle;Max_cycle;Signal;HPM_P1;HPM_P2
2023/07/26 00:00:53;;;;;;;18.80;14.70;;;14.40;99.90;;;15.83;68.86;97209.84;5032659;28;20042;-43
2023/07/26 00:03:21;;;;;;;18.15;13.77;;;14.40;99.90;;;15.82;68.63;97220.78;5032687;28;20417;-43
2023/07/26 00:05:49;;;;;;;21.10;14.40;;;14.40;99.90;;;15.82;68.67;97221.63;5032781;28;20045;-45
2023/07/26 00:08:16;;;;;;;18.02;12.90;;;14.40;99.90;;;15.85;68.75;97221.19;5032105;28;20383;-46
2023/07/26 00:10:46;;;;;;;16.15;14.02;;;14.40;99.90;;;15.85;68.97;97225.75;5032518;28;20072;-43
2023/07/26 00:13:17;;;;;;;19.05;13.25;;;14.40;99.90;;;15.89;68.65;97225.13;5032461;28;20037;-45
2023/07/26 00:15:44;;;;;;;17.45;13.15;;;14.40;99.90;;;15.90;68.46;97220.59;5032356;28;20049;-47
2023/07/26 00:18:12;;;;;;;18.52;11.57;;;14.40;99.90;;;15.83;68.67;97219.75;5032246;28;20102;-43
2023/07/26 00:20:40;;;;;;;18.10;12.98;;;14.30;99.90;;;15.89;68.42;97221.63;5031380;28;20038;-44
2023/07/26 00:23:08;;;;;;;14.95;11.52;;;14.30;99.90;;;15.94;68.18;97222.66;5030439;28;20057;-46
2023/07/26 00:25:35;;;;;;;16.17;12.15;;;14.40;99.90;;;15.90;68.26;97225.97;5031483;28;20060;-46
2023/07/26 00:28:03;;;;;;;15.27;11.73;;;14.30;99.90;;;15.92;68.12;97226.59;5029544;28;20046;-44
2023/07/26 00:30:31;;;;;;;18.02;10.73;;;14.30;99.90;;;15.91;67.98;97225.75;5032400;28;20045;-44
2023/07/26 00:32:58;;;;;;;14.63;11.90;;;14.30;99.90;;;15.96;67.77;97224.31;5032445;28;20038;-43
2023/07/26 00:35:28;;;;;;;13.10;10.02;;;14.30;99.90;;;15.97;67.58;97232.16;5032278;28;20420;-44
2023/07/26 00:37:56;;;;;;;12.23;9.18;;;14.30;99.90;;;16.01;66.85;97237.94;5038609;28;20137;-43
2023/07/26 00:40:24;;;;;;;11.52;8.88;;;14.40;99.90;;;15.85;66.57;97239.16;5030855;28;20416;-43
2023/07/26 00:42:52;;;;;;;9.20;7.30;;;14.30;99.90;;;15.84;66.17;97238.34;5030866;28;20052;-44
2023/07/26 00:45:20;;;;;;;9.75;7.25;;;14.30;99.90;;;15.85;66.17;97236.47;5031856;28;20053;-45
2023/07/26 00:47:48;;;;;;;7.53;6.35;;;14.20;99.90;;;15.83;65.70;97235.88;5030330;28;20049;-45
2023/07/26 00:50:16;;;;;;;9.45;6.20;;;14.20;99.90;;;15.85;65.56;97237.31;5032285;28;20456;-44
2023/07/26 00:52:44;;;;;;;7.63;6.05;;;14.20;99.90;;;15.85;65.31;97233.81;5031885;28;20042;-43
2023/07/26 00:55:16;;;;;;;7.10;5.63;;;14.30;99.90;;;15.79;65.08;97232.75;5030736;28;20045;-43
2023/07/26 00:57:46;;;;;;;9.75;5.57;;;14.20;99.90;;;15.82;65.04;97236.88;5022319;28;20045;-43
2023/07/26 01:00:16;;;;;;;9.02;6.03;;;14.20;99.90;;;15.83;64.80;97242.03;5031935;28;20056;-43
2023/07/26 01:02:45;;;;;;;7.72;5.35;;;14.20;99.90;;;15.85;64.67;97245.34;5023646;28;20144;-44
2023/07/26 01:05:13;;;;;;;7.78;6.00;;;14.20;99.90;;;15.89;64.75;97246.59;5030633;28;20050;-46
2023/07/26 01:08:21;;;;;;;8.73;5.95;;;14.30;99.90;;;15.90;64.87;97250.94;5021703;28;20042;-43
2023/07/26 01:10:56;;;;;;;6.47;4.72;;;14.30;99.90;;;15.95;64.35;97247.63;5023779;28;20037;-47
2023/07/26 01:13:51;;;;;;;7.57;4.82;;;14.30;99.90;;;15.97;64.20;97252.81;5014598;28;20052;-44
2023/07/26 01:16:20;;;;;;;9.97;5.73;;;14.30;99.90;;;15.98;63.94;97255.28;5014796;28;20101;-44
2023/07/26 01:18:48;;;;;;;11.15;6.22;;;14.30;99.90;;;16.02;64.19;97253.03;5022446;28;20288;-46
2023/07/26 01:21:15;;;;;;;11.38;6.75;;;14.30;99.90;;;16.01;64.16;97257.56;5029862;28;20045;-43
2023/07/26 01:23:43;;;;;;;10.57;7.20;;;14.30;99.90;;;16.03;64.50;97249.28;5031263;28;20052;-44
2023/07/26 01:26:10;;;;;;;9.23;6.60;;;14.30;99.90;;;16.03;64.24;97247.47;5028912;28;20056;-47
2023/07/26 01:28:38;;;;;;;9.15;6.85;;;14.30;99.90;;;16.02;64.27;97253.84;5029656;28;20050;-44
2023/07/26 01:31:08;;;;;;;12.40;7.60;;;14.30;99.90;;;16.03;64.26;97252.81;5031184;28;20049;-46
2023/07/26 01:33:37;;;;;;;12.25;7.47;;;14.30;99.90;;;16.06;64.19;97259.63;5029844;28;20049;-47
2023/07/26 01:36:05;;;;;;;8.70;6.38;;;14.30;99.90;;;16.05;64.13;97258.81;5013777;28;20160;-46
2023/07/26 01:38:33;;;;;;;11.68;7.05;;;14.40;99.90;;;16.04;64.11;97264.38;5020866;28;20068;-45
2023/07/26 01:41:02;;;;;;;8.45;6.68;;;14.30;99.90;;;16.02;64.06;97269.13;5031188;28;20056;-43
2023/07/26 01:43:32;;;;;;;9.45;6.57;;;14.30;99.90;;;16.00;64.14;97265.84;5029979;28;20061;-43
2023/07/26 01:45:59;;;;;;;7.63;5.68;;;14.30;99.90;;;15.98;63.93;97273.25;5031116;28;20045;-43
2023/07/26 01:48:27;;;;;;;9.30;5.55;;;14.30;99.90;;;15.98;63.80;97273.25;5028979;28;20478;-43
2023/07/26 01:50:55;;;;;;;7.20;5.38;;;14.30;99.90;;;16.01;63.86;97272.84;5030124;28;20365;-46
2023/07/26 01:53:22;;;;;;;7.70;5.22;;;14.30;99.90;;;15.99;63.43;97261.47;5028751;28;20527;-44
2023/07/26 01:55:50;;;;;;;7.43;5.50;;;14.30;99.90;;;15.98;63.25;97271.41;5029832;28;20152;-45
2023/07/26 01:58:17;;;;;;;7.38;4.47;;;14.20;99.90;;;15.98;62.91;97267.91;5029093;28;20053;-46
2023/07/26 02:00:46;;;;;;;5.70;4.38;;;14.20;99.90;;;15.90;62.75;97263.56;5029591;28;20052;-45
2023/07/26 02:03:13;;;;;;;7.18;4.82;;;14.10;99.90;;;15.89;62.97;97268.06;5029809;28;20061;-45
2023/07/26 02:05:45;;;;;;;7.13;4.32;;;14.10;99.90;;;15.85;62.74;97268.69;5030573;28;20049;-45
2023/07/26 02:08:13;;;;;;;5.63;3.75;;;14.10;99.90;;;15.84;62.68;97272.38;5012674;28;20069;-46
2023/07/26 02:10:42;;;;;;;7.97;3.92;;;14.10;99.90;;;15.84;62.89;97261.66;5029454;28;20053;-45
2023/07/26 02:13:09;;;;;;;5.13;3.88;;;14.10;99.90;;;15.84;62.71;97273.25;5029746;28;20045;-44
2023/07/26 02:15:37;;;;;;;6.93;4.07;;;14.10;99.90;;;15.88;62.79;97274.47;5029564;28;20045;-45
2023/07/26 02:18:04;;;;;;;6.32;4.30;;;14.20;99.90;;;15.88;62.49;97271.81;5028909;28;20053;-48
2023/07/26 02:20:33;;;;;;;5.43;3.42;;;14.20;99.90;;;15.89;62.67;97278.00;5030523;28;20050;-46
2023/07/26 02:23:01;;;;;;;4.90;3.80;;;14.10;99.90;;;15.89;62.67;97268.06;5029417;28;20084;-45
2023/07/26 02:25:29;;;;;;;5.15;3.70;;;14.20;99.90;;;15.91;62.63;97273.25;5029792;28;20060;-43
2023/07/26 02:28:00;;;;;;;5.15;3.83;;;14.20;99.90;;;15.91;62.66;97275.94;5028846;28;20277;-44
2023/07/26 02:30:28;;;;;;;5.95;3.85;;;14.10;99.90;;;15.88;62.41;97271.81;5028761;28;20061;-44
2023/07/26 02:32:56;;;;;;;6.78;3.88;;;14.10;99.90;;;15.86;62.42;97279.22;5029197;28;20056;-48
2023/07/26 02:35:23;;;;;;;4.68;3.75;;;14.10;99.90;;;15.83;62.51;97282.31;5012972;28;20045;-46
2023/07/26 02:37:51;;;;;;;8.60;4.32;;;14.00;99.90;;;15.82;62.29;97285.19;5029812;28;20037;-45
2023/07/26 02:40:19;;;;;;;4.75;3.38;;;14.00;99.90;;;15.78;62.29;97282.13;5029132;28;20049;-46
2023/07/26 02:42:46;;;;;;;5.35;3.65;;;14.00;99.90;;;15.73;62.28;97279.19;5029150;28;20406;-45
2023/07/26 02:45:14;;;;;;;6.65;3.67;;;13.90;99.90;;;15.67;62.11;97291.53;5029294;28;20053;-44
2023/07/26 02:47:42;;;;;;;4.78;3.75;;;13.80;99.90;;;15.61;62.15;97291.53;5028234;28;20060;-44
2023/07/26 02:50:09;;;;;;;4.55;3.33;;;13.80;99.90;;;15.52;62.33;97293.53;5029095;28;20056;-43
2023/07/26 02:52:37;;;;;;;8.48;3.88;;;13.80;99.90;;;15.48;62.52;97298.47;5033119;28;20045;-43
2023/07/26 02:55:05;;;;;;;6.18;4.07;;;13.80;99.90;;;15.45;62.69;97300.75;5034239;28;20404;-45
2023/07/26 02:57:33;;;;;;;6.22;3.35;;;13.70;99.90;;;15.39;62.46;97298.88;5033331;28;20523;-48
2023/07/26 03:00:00;;;;;;;4.57;3.17;;;13.60;99.90;;;15.32;62.66;97309.56;5032860;28;20072;-47
2023/07/26 03:02:28;;;;;;;5.15;3.67;;;13.60;99.90;;;15.30;62.70;97304.41;5033979;28;20045;-43
2023/07/26 03:04:56;;;;;;;4.15;3.55;;;13.60;99.90;;;15.28;62.78;97311.00;5032791;28;20045;-46
2023/07/26 03:07:23;;;;;;;3.70;3.30;;;13.50;99.90;;;15.23;62.92;97313.44;5032036;28;20053;-45
2023/07/26 03:09:51;;;;;;;6.82;3.72;;;13.50;99.90;;;15.16;62.99;97311.56;5032441;28;20050;-46
2023/07/26 03:12:18;;;;;;;5.07;3.83;;;13.50;99.90;;;15.14;62.91;97310.94;5033798;28;20045;-48
2023/07/26 03:14:46;;;;;;;6.60;3.97;;;13.50;99.90;;;15.12;62.99;97313.00;5032762;28;20048;-46
2023/07/26 03:17:14;;;;;;;3.97;3.58;;;13.40;99.90;;;15.12;62.94;97320.19;5032214;28;20045;-45
2023/07/26 03:19:51;;;;;;;5.72;4.60;;;13.50;99.90;;;15.04;63.29;97323.84;5033630;28;20052;-47
2023/07/26 03:22:18;;;;;;;4.70;4.22;;;13.40;99.90;;;15.07;63.22;97325.31;5032350;28;20053;-45
2023/07/26 03:24:46;;;;;;;6.10;4.88;;;13.40;99.90;;;15.05;63.30;97327.38;5028093;28;20496;-43
2023/07/26 03:27:14;;;;;;;6.75;4.00;;;13.40;99.90;;;14.92;63.56;97328.94;5033069;28;20052;-43
2023/07/26 03:29:41;;;;;;;6.65;4.30;;;13.40;99.90;;;14.98;63.53;97331.88;5032220;28;20076;-45
2023/07/26 03:32:09;;;;;;;5.00;4.10;;;13.40;99.90;;;14.99;63.50;97334.34;5033963;28;20045;-46
2023/07/26 03:34:37;;;;;;;5.55;4.32;;;13.40;99.90;;;14.99;63.47;97331.66;5033623;28;20044;-49
2023/07/26 03:37:05;;;;;;;5.15;4.10;;;13.30;99.90;;;14.95;63.62;97335.78;5031707;28;20051;-45
2023/07/26 03:39:32;;;;;;;5.85;5.25;;;13.30;99.90;;;14.95;63.77;97335.78;5033461;28;20405;-47
2023/07/26 03:42:00;;;;;;;6.78;4.55;;;13.30;99.90;;;14.93;63.78;97335.16;5024519;28;20042;-44
2023/07/26 03:44:29;;;;;;;8.90;5.32;;;13.30;99.90;;;14.96;63.87;97342.78;5033160;28;20053;-48
2023/07/26 03:46:56;;;;;;;5.43;4.60;;;13.30;99.90;;;14.93;63.86;97343.19;5032906;28;20104;-47
2023/07/26 03:49:24;;;;;;;6.90;5.00;;;13.30;99.90;;;14.91;63.86;97346.06;5031568;28;20053;-47
2023/07/26 03:51:52;;;;;;;6.88;5.20;;;13.30;99.90;;;14.91;63.81;97351.41;5032906;28;20049;-49
2023/07/26 03:54:19;;;;;;;7.65;5.40;;;13.30;99.90;;;14.91;63.77;97340.69;5032089;28;20046;-45
2023/07/26 03:56:47;;;;;;;6.70;5.63;;;13.30;99.90;;;14.93;63.83;97352.03;5033210;28;20148;-47
2023/07/26 03:59:14;;;;;;;6.35;5.30;;;13.30;99.90;;;14.92;63.86;97346.88;5032728;28;20221;-46
2023/07/26 04:01:42;;;;;;;7.57;5.35;;;13.30;99.90;;;14.96;63.83;97356.19;5031282;28;20397;-43
2023/07/26 04:04:10;;;;;;;8.82;5.65;;;13.40;99.90;;;14.96;63.85;97357.00;5033494;28;20085;-43
2023/07/26 04:06:37;;;;;;;7.55;6.13;;;13.30;99.90;;;14.99;63.91;97354.97;5031866;28;20398;-47
2023/07/26 04:09:05;;;;;;;10.82;5.80;;;13.40;99.90;;;15.05;63.80;97365.72;5030962;28;20054;-46
2023/07/26 04:11:33;;;;;;;8.70;5.70;;;13.50;99.90;;;15.08;63.50;97364.50;5032410;28;20053;-46
2023/07/26 04:14:00;;;;;;;9.32;6.20;;;13.50;99.90;;;15.08;63.66;97359.13;5032508;28;20037;-43
2023/07/26 04:16:29;;;;;;;7.95;6.10;;;13.50;99.90;;;15.08;63.38;97361.81;5032471;28;20052;-46
2023/07/26 04:18:56;;;;;;;6.50;5.43;;;13.40;99.90;;;15.08;63.38;97362.66;5032163;28;20044;-44
2023/07/26 04:21:24;;;;;;;6.13;5.47;;;13.50;99.90;;;15.05;63.46;97362.22;5032677;28;20452;-44
2023/07/26 04:23:51;;;;;;;6.65;5.30;;;13.40;99.90;;;15.04;63.56;97357.88;5032475;28;20050;-45
2023/07/26 04:26:19;;;;;;;6.43;5.53;;;13.40;99.90;;;15.09;63.40;97358.94;5031694;28;20053;-45
2023/07/26 04:28:47;;;;;;;6.68;5.47;;;13.50;99.90;;;15.10;63.36;97359.75;5031853;28;20097;-44
2023/07/26 04:31:14;;;;;;;6.80;5.90;;;13.40;99.90;;;15.11;63.26;97356.91;5032325;28;20053;-46
2023/07/26 04:33:42;;;;;;;9.95;5.32;;;13.50;99.90;;;15.18;63.17;97367.69;5032245;28;20042;-44
2023/07/26 04:36:10;;;;;;;8.02;5.32;;;13.50;99.90;;;15.20;63.06;97365.63;5032150;28;20053;-46
2023/07/26 04:38:37;;;;;;;6.47;5.00;;;13.50;99.90;;;15.21;62.78;97371.81;5031858;28;20413;-44
2023/07/26 04:41:05;;;;;;;6.15;5.30;;;13.50;99.90;;;15.21;62.75;97371.81;5024428;28;20072;-45
2023/07/26 04:43:32;;;;;;;8.00;5.18;;;13.60;99.90;;;15.21;62.68;97380.66;5032217;28;20056;-47
2023/07/26 04:46:00;;;;;;;7.15;5.35;;;13.60;99.90;;;15.28;62.76;97378.88;5032048;28;20049;-45
2023/07/26 04:48:27;;;;;;;6.20;5.55;;;13.70;99.90;;;15.40;62.67;97386.34;5031570;28;20037;-45
2023/07/26 04:50:55;;;;;;;7.80;4.78;;;13.80;99.90;;;15.44;62.67;97384.94;5031868;28;20045;-46
2023/07/26 04:53:23;;;;;;;5.97;5.13;;;13.80;99.90;;;15.46;62.29;97393.59;5031846;28;20053;-44
2023/07/26 04:55:52;;;;;;;6.35;5.63;;;13.90;99.90;;;15.46;62.07;97388.25;5031775;28;20072;-43
2023/07/26 04:58:19;;;;;;;5.82;5.28;;;13.80;99.90;;;15.43;62.26;97384.13;5029852;28;20254;-44
2023/07/26 05:00:47;;;;;;;9.40;6.35;;;13.80;99.90;;;15.45;62.24;97384.75;5031762;28;20050;-48
2023/07/26 05:03:15;;;;;;;7.93;5.65;;;13.90;99.90;;;15.44;62.48;97391.13;5031595;28;20045;-48
2023/07/26 05:05:50;;;;;;;6.70;4.85;;;13.80;99.90;;;15.49;62.31;97393.19;5031809;28;20421;-46
2023/07/26 05:08:18;;;;;;;7.38;5.53;;;13.90;99.90;;;15.51;62.49;97392.00;5029747;28;20090;-47
2023/07/26 05:10:51;;;;;;;5.82;5.03;;;13.90;99.90;;;15.54;62.62;97401.50;5031664;28;20053;-46
2023/07/26 05:13:19;;;;;;;6.60;5.68;;;13.90;99.90;;;15.59;62.47;97399.03;5030933;28;20493;-47
2023/07/26 05:15:47;;;;;;;7.75;5.32;;;14.00;99.90;;;15.59;62.55;97400.91;5030395;28;20048;-48
2023/07/26 05:18:14;;;;;;;7.70;6.03;;;14.00;99.90;;;15.64;62.12;97398.44;5030986;28;20038;-49
2023/07/26 05:20:42;;;;;;;6.97;6.03;;;14.00;99.90;;;15.69;62.42;97399.50;5030218;28;20417;-44
2023/07/26 05:23:10;;;;;;;5.78;4.90;;;14.10;99.90;;;15.73;62.19;97402.66;5031156;28;20133;-45
2023/07/26 05:25:40;;;;;;;5.70;5.05;;;14.10;99.90;;;15.75;62.06;97404.09;5031330;28;20041;-44
2023/07/26 05:28:08;;;;;;;5.38;4.88;;;14.10;99.90;;;15.78;61.87;97404.72;5029380;28;20053;-47
2023/07/26 05:30:40;;;;;;;5.55;5.05;;;14.20;99.90;;;15.79;61.73;97401.84;5031294;28;20053;-48
2023/07/26 05:33:08;;;;;;;9.77;5.80;;;14.20;99.90;;;15.83;61.73;97404.97;5029789;28;20068;-49
2023/07/26 05:35:38;;;;;;;6.53;4.88;;;14.20;99.90;;;15.84;61.78;97407.44;5029932;28;20140;-49
2023/07/26 05:38:06;;;;;;;5.32;4.82;;;14.20;99.90;;;15.85;61.73;97406.41;5029469;28;20412;-45
2023/07/26 05:40:34;;;;;;;10.68;5.20;;;14.20;99.90;;;15.88;61.65;97413.25;5030986;28;20048;-46
2023/07/26 05:43:02;;;;;;;9.35;5.28;;;14.20;99.90;;;15.85;61.65;97422.50;5031088;28;20045;-47
2023/07/26 05:45:29;;;;;;;5.35;4.63;;;14.20;99.90;;;15.75;61.53;97417.50;5031041;28;20041;-44
2023/07/26 05:47:57;;;;;;;7.75;4.63;;;14.20;99.90;;;15.75;61.67;97414.00;5030416;28;20041;-46
2023/07/26 05:50:25;;;;;;;6.80;4.40;;;14.20;99.90;;;15.83;61.78;97423.75;5030910;28;20045;-46
2023/07/26 05:52:53;;;;;;;8.68;5.78;;;14.20;99.90;;;15.83;61.79;97421.06;5030478;28;20408;-44
2023/07/26 05:55:20;;;;;;;6.32;4.30;;;14.20;99.90;;;15.90;61.80;97422.75;5030959;28;20045;-48
2023/07/26 05:57:48;;;;;;;5.70;4.22;;;14.30;99.90;;;15.99;61.64;97425.25;5030373;28;20044;-48
2023/07/26 06:00:17;;;;;;;5.20;3.95;;;14.40;99.90;;;16.04;61.52;97425.47;5030800;28;20033;-48
2023/07/26 06:02:45;;;;;;;5.38;4.15;;;14.50;99.90;;;16.08;61.12;97422.19;5030821;28;20052;-44
2023/07/26 06:05:13;;;;;;;5.30;4.25;;;14.50;99.90;;;16.13;61.22;97426.97;5030506;28;20433;-43
2023/07/26 06:07:40;;;;;;;4.25;3.80;;;14.60;99.90;;;16.16;61.46;97421.19;5030017;28;20049;-46
2023/07/26 06:10:08;;;;;;;4.63;3.33;;;14.70;99.90;;;16.23;61.13;97423.91;5030719;28;20284;-43
2023/07/26 06:12:36;;;;;;;4.55;3.90;;;14.70;99.90;;;16.19;61.14;97423.47;5030722;28;20041;-48
2023/07/26 06:15:05;;;;;;;6.70;3.70;;;14.70;99.90;;;16.18;61.10;97420.97;5030640;28;20038;-46
2023/07/26 06:17:33;;;;;;;4.95;4.00;;;14.60;99.90;;;16.15;61.03;97424.91;5030633;28;20348;-43
2023/07/26 06:20:00;;;;;;;4.78;3.88;;;14.60;99.90;;;16.10;61.17;97432.72;5030186;28;20044;-45
2023/07/26 06:22:28;;;;;;;5.55;3.63;;;14.60;99.90;;;16.10;61.33;97430.03;5030585;28;20045;-45
2023/07/26 06:24:56;;;;;;;8.40;4.53;;;14.60;99.90;;;16.22;61.34;97430.28;5032530;28;20049;-45
2023/07/26 06:27:28;;;;;;;5.07;3.75;;;14.70;99.90;;;16.27;61.28;97433.19;5031958;28;20046;-43
2023/07/26 06:29:57;;;;;;;5.90;3.72;;;14.80;99.90;;;16.25;61.05;97441.47;5034561;28;20056;-46
2023/07/26 06:32:24;;;;;;;4.97;3.55;;;14.80;99.90;;;16.12;60.98;97447.59;5034448;28;20501;-44
2023/07/26 06:34:52;;;;;;;6.75;3.60;;;14.70;99.90;;;16.18;61.34;97448.66;5034492;28;20048;-49
2023/07/26 06:37:20;;;;;;;6.55;3.97;;;14.70;99.90;;;16.03;61.06;97454.19;5034093;28;20418;-47
2023/07/26 06:39:47;;;;;;;5.22;3.70;;;14.70;99.90;;;16.06;61.42;97452.97;5034492;28;20046;-48
2023/07/26 06:42:15;;;;;;;6.32;3.78;;;14.60;99.90;;;16.17;61.40;97454.22;5034269;28;20504;-45
2023/07/26 06:44:42;;;;;;;5.30;4.03;;;14.70;99.90;;;16.25;61.37;97460.25;5034180;28;20053;-44
2023/07/26 06:47:10;;;;;;;6.97;4.18;;;14.70;99.90;;;16.23;61.26;97459.63;5033518;28;20049;-45
2023/07/26 06:49:37;;;;;;;6.70;4.75;;;14.70;99.90;;;16.10;61.94;97460.41;5031017;28;20048;-46
2023/07/26 06:52:05;;;;;;;9.25;4.88;;;14.70;99.90;;;16.08;61.98;97472.38;5026928;28;20048;-44
2023/07/26 06:54:33;;;;;;;5.38;4.43;;;14.60;99.90;;;16.01;62.37;97475.03;5034082;28;20034;-46
2023/07/26 06:57:00;;;;;;;6.45;5.40;;;14.50;99.90;;;15.82;63.05;97478.44;5033189;28;20044;-44
2023/07/26 06:59:28;;;;;;;6.55;4.72;;;14.30;99.90;;;15.69;63.46;97473.81;5030382;28;20045;-43
2023/07/26 07:01:55;;;;;;;6.22;5.10;;;14.20;99.90;;;15.78;63.43;97466.44;5032780;28;20390;-46
2023/07/26 07:04:23;;;;;;;9.57;5.70;;;14.20;99.90;;;15.78;63.28;97469.13;5033846;28;20038;-44
2023/07/26 07:06:51;;;;;;;6.93;4.55;;;14.20;99.90;;;15.83;63.61;97472.88;5015958;28;20042;-43
2023/07/26 07:09:18;;;;;;;7.82;4.88;;;14.20;99.90;;;15.82;63.47;97475.75;5025595;28;20485;-46
2023/07/26 07:11:46;;;;;;;5.82;4.82;;;14.20;99.90;;;15.82;63.60;97465.03;5033762;28;20493;-48
2023/07/26 07:14:13;;;;;;;7.13;6.28;;;14.20;99.90;;;15.81;63.48;97474.94;5032341;28;20509;-45
2023/07/26 07:16:41;;;;;;;7.85;4.90;;;14.20;99.90;;;15.78;63.52;97469.97;5033281;28;20049;-46
2023/07/26 07:19:09;;;;;;;8.60;5.18;;;14.20;99.90;;;15.75;63.37;97467.69;5033103;28;20409;-45
2023/07/26 07:21:36;;;;;;;9.27;5.13;;;14.10;99.90;;;15.82;63.48;97467.72;5033777;28;20413;-44
2023/07/26 07:24:05;;;;;;;11.65;6.25;;;14.20;99.90;;;15.86;63.52;97469.00;5033995;28;20167;-44
2023/07/26 07:26:32;;;;;;;8.40;5.40;;;14.20;99.90;;;15.87;63.66;97467.94;5033180;28;20053;-46
2023/07/26 07:29:00;;;;;;;9.43;6.03;;;14.20;99.90;;;15.87;63.75;97474.13;5033407;28;20276;-47
2023/07/26 07:31:28;;;;;;;8.20;6.05;;;14.30;99.90;;;15.91;63.51;97482.63;5032410;28;20049;-45
2023/07/26 07:33:55;;;;;;;9.63;6.72;;;14.30;99.90;;;15.96;63.68;97480.19;5033134;28;20042;-47
2023/07/26 07:36:23;;;;;;;7.60;6.13;;;14.30;99.90;;;16.02;63.84;97486.63;5032841;28;20068;-45
2023/07/26 07:38:50;;;;;;;7.40;6.00;;;14.40;99.90;;;16.08;63.86;97486.63;5033109;28;20074;-46
2023/07/26 07:41:18;;;;;;;6.15;5.47;;;14.40;99.90;;;15.91;63.77;97488.00;5033911;28;20037;-49
2023/07/26 07:43:45;;;;;;;8.38;6.28;;;14.30;99.90;;;15.98;63.81;97491.56;5033206;28;20433;-47
2023/07/26 07:46:13;;;;;;;6.57;5.63;;;14.40;99.90;;;16.05;63.94;97487.03;5033215;28;20492;-46
2023/07/26 07:48:42;;;;;;;7.57;5.32;;;14.50;99.90;;;16.12;63.87;97487.88;5032314;28;20056;-48
2023/07/26 07:51:09;;;;;;;6.07;5.47;;;14.50;99.90;;;16.18;63.75;97486.25;5033089;28;20052;-44
2023/07/26 07:53:37;;;;;;;7.20;4.88;;;14.60;99.90;;;16.21;63.70;97488.56;5033066;28;20432;-47
2023/07/26 07:56:05;;;;;;;6.03;5.40;;;14.60;99.90;;;16.26;63.69;97486.06;5032935;28;20038;-46
2023/07/26 07:58:32;;;;;;;5.65;4.63;;;14.70;99.90;;;16.25;63.53;97494.34;5032584;28;20042;-46
2023/07/26 08:01:00;;;;;;;6.35;5.35;;;14.60;99.90;;;16.28;63.54;97485.88;5033121;28;20034;-48
2023/07/26 08:03:29;;;;;;;5.90;5.10;;;14.70;99.90;;;16.29;63.50;97498.28;5032841;28;20049;-46
2023/07/26 08:05:57;;;;;;;6.65;4.97;;;14.60;99.90;;;16.25;63.49;97486.28;5032885;28;20060;-45
2023/07/26 08:08:25;;;;;;;5.13;4.50;;;14.60;99.90;;;16.29;63.68;97491.06;5022900;28;20417;-48
2023/07/26 08:10:52;;;;;;;6.57;5.30;;;14.70;99.90;;;16.30;63.62;97484.66;5031459;28;20041;-45
2023/07/26 08:13:20;;;;;;;5.75;5.07;;;14.60;99.90;;;16.36;63.74;97487.56;5032887;28;20064;-47
2023/07/26 08:15:48;;;;;;;7.68;5.30;;;14.70;99.90;;;16.39;63.71;97493.34;5032639;28;20030;-46
2023/07/26 08:18:15;;;;;;;4.90;4.35;;;14.70;99.90;;;16.44;63.56;97496.28;5031862;28;20050;-51
2023/07/26 08:20:43;;;;;;;7.25;4.97;;;14.80;99.90;;;16.49;63.46;97495.66;5031467;28;20048;-46
2023/07/26 08:23:10;;;;;;;8.95;5.60;;;14.90;99.90;;;16.60;63.64;97486.19;5032228;28;20045;-48
2023/07/26 08:25:39;;;;;;;5.95;4.75;;;15.00;99.90;;;16.73;63.67;97481.66;5032152;28;20523;-44
2023/07/26 08:28:07;;;;;;;7.80;4.72;;;15.20;99.90;;;16.85;63.48;97483.78;5030815;28;20053;-45
2023/07/26 08:30:34;;;;;;;5.25;4.75;;;15.30;99.90;;;16.89;63.16;97483.16;5031244;28;20037;-46
2023/07/26 08:33:02;;;;;;;6.57;4.88;;;15.30;99.90;;;16.91;62.90;97488.34;5031237;28;20052;-45
2023/07/26 08:35:30;;;;;;;8.18;4.40;;;15.30;99.90;;;16.92;62.70;97484.59;5024207;28;20492;-45
2023/07/26 08:37:58;;;;;;;5.90;4.40;;;15.30;99.90;;;16.91;62.63;97483.78;5031317;28;20037;-46
2023/07/26 08:40:25;;;;;;;5.82;4.95;;;15.30;99.90;;;16.97;62.28;97489.38;5032365;28;20089;-45
2023/07/26 08:42:56;;;;;;;4.53;4.13;;;15.40;99.90;;;17.05;62.62;97490.00;5032255;28;20048;-46
2023/07/26 08:45:26;;;;;;;4.90;4.40;;;15.50;99.90;;;17.15;62.40;97492.28;5032231;28;20047;-44
2023/07/26 08:47:54;;;;;;;5.63;4.38;;;15.60;99.90;;;17.17;62.19;97486.69;5012783;28;20056;-45
2023/07/26 08:50:23;;;;;;;5.40;4.70;;;15.60;99.90;;;17.17;62.06;97481.31;5031885;28;20052;-48
2023/07/26 08:52:50;;;;;;;6.68;3.70;;;15.60;99.90;;;17.19;61.77;97480.06;5032718;28;20045;-49
2023/07/26 08:55:18;;;;;;;5.15;4.07;;;15.50;99.90;;;17.19;61.60;97480.06;5032526;28;20501;-47
2023/07/26 08:57:46;;;;;;;6.43;4.20;;;15.50;99.90;;;17.19;61.54;97481.94;5030905;28;20041;-45
2023/07/26 09:00:14;;;;;;;5.22;4.70;;;15.50;99.90;;;17.19;61.86;97479.25;5031368;28;20037;-46
2023/07/26 09:02:45;;;;;;;5.97;3.55;;;15.50;99.90;;;17.17;61.93;97474.06;5031853;28;20504;-46
2023/07/26 09:05:13;;;;;;;4.80;3.63;;;15.50;99.90;;;17.16;61.72;97474.25;5031731;28;20052;-47
2023/07/26 09:07:41;;;;;;;4.03;3.38;;;15.50;99.90;;;17.13;61.71;97476.34;5021855;28;20053;-46
2023/07/26 09:10:29;;;;;;;3.50;2.58;;;15.40;99.90;;;17.10;61.40;97481.31;5042425;28;20400;-45
2023/07/26 09:13:14;;;;;;;3.80;2.40;;;15.40;99.90;;;17.01;60.86;97488.75;5022299;28;20066;-50
2023/07/26 09:15:43;;;;;;;5.63;3.13;;;15.30;99.90;;;17.04;61.01;97490.19;5022596;28;20041;-45
2023/07/26 09:18:12;;;;;;;3.38;2.50;;;15.40;99.90;;;16.97;60.90;97487.50;5022209;28;20053;-46
2023/07/26 09:20:39;;;;;;;4.50;2.70;;;15.40;99.90;;;16.99;61.19;97490.00;5021803;28;20038;-46
2023/07/26 09:23:09;;;;;;;6.20;3.53;;;15.40;99.90;;;16.90;62.04;97492.91;5021794;28;20453;-45
2023/07/26 09:25:41;;;;;;;3.88;3.33;;;15.40;99.90;;;16.79;62.59;97495.31;5021571;28;20041;-48
2023/07/26 09:28:14;;;;;;;3.08;2.72;;;15.20;99.90;;;16.57;62.86;97487.41;5020858;28;20041;-44
2023/07/26 09:30:48;;;;;;;4.40;3.60;;;15.00;99.90;;;16.58;62.93;97493.63;5020938;28;20041;-46
2023/07/26 09:33:17;;;;;;;5.32;3.45;;;15.00;99.90;;;16.57;62.84;97494.66;5019028;28;20053;-46
2023/07/26 09:35:52;;;;;;;3.90;3.47;;;14.90;99.90;;;16.54;63.24;97487.81;5020699;28;20521;-44
2023/07/26 09:38:25;;;;;;;4.05;3.45;;;14.90;99.90;;;16.64;63.37;97480.19;5022015;28;20052;-47
2023/07/26 09:40:52;;;;;;;3.90;3.40;;;15.00;99.90;;;16.71;63.34;97494.47;5020679;28;20033;-44
2023/07/26 09:43:32;;;;;;;4.68;3.53;;;15.10;99.90;;;16.68;63.13;97491.38;5021331;28;20412;-47
2023/07/26 09:46:05;;;;;;;3.13;2.70;;;15.10;99.90;;;16.54;62.81;97490.53;5018800;28;20038;-45
2023/07/26 09:48:59;;;;;;;4.03;3.00;;;15.00;99.90;;;16.64;63.11;97487.44;5021349;28;20041;-45
2023/07/26 09:51:33;;;;;;;6.28;3.78;;;15.20;99.90;;;16.82;63.28;97482.31;5020118;28;20045;-44
2023/07/26 09:54:00;;;;;;;8.70;3.30;;;15.40;99.90;;;16.90;62.99;97492.03;5021380;28;20041;-47
2023/07/26 09:56:35;;;;;;;4.93;3.30;;;15.60;99.90;;;16.94;62.70;97485.22;5021568;28;20038;-44
2023/07/26 09:59:09;;;;;;;3.60;3.20;;;15.70;99.90;;;16.95;62.28;97488.75;5021249;28;20057;-45
2023/07/26 10:01:44;;;;;;;4.40;3.55;;;15.70;99.90;;;17.03;62.09;97483.16;5021866;28;20378;-47
2023/07/26 10:04:16;;;;;;;4.53;3.42;;;15.70;99.90;;;17.00;62.50;97491.63;5020402;28;20042;-48
2023/07/26 10:06:46;;;;;;;4.22;3.05;;;15.70;99.90;;;16.83;61.99;97489.34;5005164;28;20045;-45
2023/07/26 10:09:16;;;;;;;2.28;1.90;;;15.60;99.90;;;17.01;60.86;97490.63;5016708;28;20045;-44
2023/07/26 10:11:45;;;;;;;2.05;1.85;;;15.70;99.90;;;17.20;60.58;97481.72;5021016;28;20057;-45
2023/07/26 10:14:16;;;;;;;2.30;1.90;;;16.00;99.90;;;17.35;60.36;97483.38;5020396;28;20034;-43
2023/07/26 10:16:46;;;;;;;2.95;2.35;;;16.20;99.90;;;17.47;59.57;97479.03;5020394;28;20042;-45
2023/07/26 10:19:15;;;;;;;3.17;2.40;;;16.40;98.30;;;17.68;58.99;97477.91;5021480;28;20045;-45
2023/07/26 10:21:43;;;;;;;4.47;3.15;;;16.60;96.60;;;17.69;58.21;97480.41;5006748;28;20061;-46
2023/07/26 10:24:14;;;;;;;2.58;2.28;;;16.70;93.60;;;17.82;57.54;97478.75;5008665;28;20069;-46